sensor_id;sensor_type;location;lat;lon;timestamp;P1;durP1;ratioP1;P2;durP2;ratioP2
36351;SDS011;22382;44.768;17.206;2023-05-10T00:02:19;13.70;;;9.57;;
36351;SDS011;22382;44.768;17.206;2023-05-10T00:04:46;14.63;;;9.63;;
36351;SDS011;22382;44.768;17.206;2023-05-10T00:07:14;12.13;;;9.40;;
36351;SDS011;22382;44.768;17.206;2023-05-10T00:09:43;13.07;;;9.05;;
36351;SDS011;22382;44.768;17.206;2023-05-10T00:12:10;13.68;;;8.52;;
36351;SDS011;22382;44.768;17.206;2023-05-10T00:14:37;13.90;;;10.40;;
36351;SDS011;22382;44.768;17.206;2023-05-10T00:17:04;14.38;;;9.73;;
36351;SDS011;22382;44.768;17.206;2023-05-10T00:19:32;18.27;;;9.63;;
36351;SDS011;22382;44.768;17.206;2023-05-10T00:21:59;13.23;;;8.98;;
36351;SDS011;22382;44.768;17.206;2023-05-10T00:24:27;12.18;;;9.15;;
36351;SDS011;22382;44.768;17.206;2023-05-10T00:26:54;12.55;;;8.88;;
36351;SDS011;22382;44.768;17.206;2023-05-10T00:29:21;14.50;;;9.88;;
36351;SDS011;22382;44.768;17.206;2023-05-10T00:31:48;15.45;;;10.50;;
36351;SDS011;22382;44.768;17.206;2023-05-10T00:34:15;14.52;;;10.63;;
36351;SDS011;22382;44.768;17.206;2023-05-10T00:36:43;14.43;;;10.30;;
36351;SDS011;22382;44.768;17.206;2023-05-10T00:39:10;14.52;;;9.40;;
36351;SDS011;22382;44.768;17.206;2023-05-10T00:41:37;17.40;;;10.77;;
36351;SDS011;22382;44.768;17.206;2023-05-10T00:44:04;17.40;;;10.15;;
36351;SDS011;22382;44.768;17.206;2023-05-10T00:46:32;15.02;;;9.57;;
36351;SDS011;22382;44.768;17.206;2023-05-10T00:48:59;16.20;;;10.52;;
36351;SDS011;22382;44.768;17.206;2023-05-10T00:51:27;14.45;;;9.18;;
36351;SDS011;22382;44.768;17.206;2023-05-10T00:53:54;17.00;;;10.15;;
36351;SDS011;22382;44.768;17.206;2023-05-10T00:56:22;12.65;;;9.45;;
36351;SDS011;22382;44.768;17.206;2023-05-10T00:58:50;12.20;;;8.88;;
36351;SDS011;22382;44.768;17.206;2023-05-10T01:01:18;12.00;;;8.48;;
36351;SDS011;22382;44.768;17.206;2023-05-10T01:03:46;13.65;;;8.88;;
36351;SDS011;22382;44.768;17.206;2023-05-10T01:06:14;11.73;;;9.10;;
36351;SDS011;22382;44.768;17.206;2023-05-10T01:08:41;11.38;;;8.73;;
36351;SDS011;22382;44.768;17.206;2023-05-10T01:11:09;11.13;;;7.75;;
36351;SDS011;22382;44.768;17.206;2023-05-10T01:13:36;12.05;;;8.20;;
36351;SDS011;22382;44.768;17.206;2023-05-10T01:16:05;14.77;;;7.82;;
36351;SDS011;22382;44.768;17.206;2023-05-10T01:18:37;9.85;;;7.93;;
36351;SDS011;22382;44.768;17.206;2023-05-10T01:24:09;14.38;;;7.65;;
36351;SDS011;22382;44.768;17.206;2023-05-10T01:29:43;11.60;;;8.57;;
36351;SDS011;22382;44.768;17.206;2023-05-10T01:36:19;13.63;;;8.60;;
36351;SDS011;22382;44.768;17.206;2023-05-10T01:44:20;13.70;;;8.75;;
36351;SDS011;22382;44.768;17.206;2023-05-10T01:47:11;15.98;;;9.63;;
36351;SDS011;22382;44.768;17.206;2023-05-10T01:49:53;13.18;;;8.75;;
36351;SDS011;22382;44.768;17.206;2023-05-10T01:52:25;13.02;;;8.95;;
36351;SDS011;22382;44.768;17.206;2023-05-10T01:55:00;17.50;;;9.02;;
36351;SDS011;22382;44.768;17.206;2023-05-10T01:57:35;13.70;;;8.90;;
36351;SDS011;22382;44.768;17.206;2023-05-10T02:00:06;11.73;;;7.63;;
36351;SDS011;22382;44.768;17.206;2023-05-10T02:02:38;12.95;;;8.70;;
36351;SDS011;22382;44.768;17.206;2023-05-10T02:05:08;11.90;;;7.88;;
36351;SDS011;22382;44.768;17.206;2023-05-10T02:07:37;10.20;;;7.55;;
36351;SDS011;22382;44.768;17.206;2023-05-10T02:10:04;14.10;;;8.90;;
36351;SDS011;22382;44.768;17.206;2023-05-10T02:12:43;14.75;;;9.02;;
36351;SDS011;22382;44.768;17.206;2023-05-10T02:15:15;15.48;;;9.77;;
36351;SDS011;22382;44.768;17.206;2023-05-10T02:17:47;15.55;;;9.75;;
36351;SDS011;22382;44.768;17.206;2023-05-10T02:20:16;14.65;;;9.40;;
36351;SDS011;22382;44.768;17.206;2023-05-10T02:22:46;12.35;;;8.77;;
36351;SDS011;22382;44.768;17.206;2023-05-10T02:25:15;12.70;;;8.75;;
36351;SDS011;22382;44.768;17.206;2023-05-10T02:27:45;14.77;;;8.27;;
36351;SDS011;22382;44.768;17.206;2023-05-10T02:30:14;11.55;;;7.88;;
36351;SDS011;22382;44.768;17.206;2023-05-10T02:32:43;13.60;;;9.30;;
36351;SDS011;22382;44.768;17.206;2023-05-10T02:35:11;12.75;;;8.63;;
36351;SDS011;22382;44.768;17.206;2023-05-10T02:37:39;10.73;;;7.88;;
36351;SDS011;22382;44.768;17.206;2023-05-10T02:40:07;13.80;;;8.52;;
36351;SDS011;22382;44.768;17.206;2023-05-10T02:42:37;12.55;;;8.30;;
36351;SDS011;22382;44.768;17.206;2023-05-10T02:45:10;12.25;;;8.55;;
36351;SDS011;22382;44.768;17.206;2023-05-10T02:47:39;16.55;;;8.40;;
36351;SDS011;22382;44.768;17.206;2023-05-10T02:50:07;14.60;;;8.77;;
36351;SDS011;22382;44.768;17.206;2023-05-10T02:52:46;12.05;;;8.77;;
36351;SDS011;22382;44.768;17.206;2023-05-10T02:55:16;12.32;;;9.13;;
36351;SDS011;22382;44.768;17.206;2023-05-10T02:57:50;14.30;;;8.98;;
36351;SDS011;22382;44.768;17.206;2023-05-10T03:00:27;11.68;;;8.07;;
36351;SDS011;22382;44.768;17.206;2023-05-10T03:02:54;12.38;;;7.95;;
36351;SDS011;22382;44.768;17.206;2023-05-10T03:05:22;12.23;;;8.18;;
36351;SDS011;22382;44.768;17.206;2023-05-10T03:07:49;13.43;;;7.50;;
36351;SDS011;22382;44.768;17.206;2023-05-10T03:10:17;12.70;;;7.63;;
36351;SDS011;22382;44.768;17.206;2023-05-10T03:16:04;10.40;;;7.78;;
36351;SDS011;22382;44.768;17.206;2023-05-10T03:24:05;11.23;;;7.63;;
36351;SDS011;22382;44.768;17.206;2023-05-10T03:26:34;11.73;;;8.07;;
36351;SDS011;22382;44.768;17.206;2023-05-10T03:29:02;14.52;;;8.52;;
36351;SDS011;22382;44.768;17.206;2023-05-10T03:31:31;11.30;;;7.70;;
36351;SDS011;22382;44.768;17.206;2023-05-10T03:33:59;10.07;;;7.82;;
36351;SDS011;22382;44.768;17.206;2023-05-10T03:36:27;13.30;;;8.75;;
36351;SDS011;22382;44.768;17.206;2023-05-10T03:38:55;16.13;;;9.50;;
36351;SDS011;22382;44.768;17.206;2023-05-10T03:41:22;12.15;;;8.93;;
36351;SDS011;22382;44.768;17.206;2023-05-10T03:43:49;13.32;;;8.88;;
36351;SDS011;22382;44.768;17.206;2023-05-10T03:46:16;11.00;;;8.60;;
36351;SDS011;22382;44.768;17.206;2023-05-10T03:48:43;12.82;;;9.00;;
36351;SDS011;22382;44.768;17.206;2023-05-10T03:51:10;14.35;;;9.65;;
36351;SDS011;22382;44.768;17.206;2023-05-10T03:53:38;12.73;;;8.55;;
36351;SDS011;22382;44.768;17.206;2023-05-10T03:56:05;14.63;;;9.63;;
36351;SDS011;22382;44.768;17.206;2023-05-10T03:58:32;16.20;;;10.65;;
36351;SDS011;22382;44.768;17.206;2023-05-10T04:00:59;11.60;;;8.85;;
36351;SDS011;22382;44.768;17.206;2023-05-10T04:03:26;12.43;;;8.75;;
36351;SDS011;22382;44.768;17.206;2023-05-10T04:06:00;16.30;;;10.38;;
36351;SDS011;22382;44.768;17.206;2023-05-10T04:08:28;13.95;;;9.02;;
36351;SDS011;22382;44.768;17.206;2023-05-10T04:11:04;15.05;;;9.77;;
36351;SDS011;22382;44.768;17.206;2023-05-10T04:13:35;14.32;;;9.10;;
36351;SDS011;22382;44.768;17.206;2023-05-10T04:16:02;17.75;;;10.07;;
36351;SDS011;22382;44.768;17.206;2023-05-10T04:18:30;13.05;;;9.40;;
36351;SDS011;22382;44.768;17.206;2023-05-10T04:20:58;16.38;;;9.88;;
36351;SDS011;22382;44.768;17.206;2023-05-10T04:23:26;15.65;;;8.88;;
36351;SDS011;22382;44.768;17.206;2023-05-10T04:26:00;15.13;;;10.20;;
36351;SDS011;22382;44.768;17.206;2023-05-10T04:28:28;13.60;;;9.77;;
36351;SDS011;22382;44.768;17.206;2023-05-10T04:31:05;14.75;;;10.32;;
36351;SDS011;22382;44.768;17.206;2023-05-10T04:33:33;16.33;;;9.77;;
36351;SDS011;22382;44.768;17.206;2023-05-10T04:36:02;13.77;;;9.27;;
36351;SDS011;22382;44.768;17.206;2023-05-10T04:38:29;13.70;;;8.82;;
36351;SDS011;22382;44.768;17.206;2023-05-10T04:41:03;17.25;;;9.85;;
36351;SDS011;22382;44.768;17.206;2023-05-10T04:43:32;15.20;;;10.68;;
36351;SDS011;22382;44.768;17.206;2023-05-10T04:45:59;14.50;;;10.10;;
36351;SDS011;22382;44.768;17.206;2023-05-10T04:48:26;16.50;;;11.32;;
36351;SDS011;22382;44.768;17.206;2023-05-10T04:50:54;13.90;;;10.45;;
36351;SDS011;22382;44.768;17.206;2023-05-10T04:53:21;16.55;;;9.85;;
36351;SDS011;22382;44.768;17.206;2023-05-10T04:55:48;14.05;;;10.65;;
36351;SDS011;22382;44.768;17.206;2023-05-10T04:58:16;16.83;;;11.82;;
36351;SDS011;22382;44.768;17.206;2023-05-10T05:00:43;18.33;;;9.55;;
36351;SDS011;22382;44.768;17.206;2023-05-10T05:03:10;16.58;;;10.52;;
36351;SDS011;22382;44.768;17.206;2023-05-10T05:05:37;14.50;;;10.13;;
36351;SDS011;22382;44.768;17.206;2023-05-10T05:08:05;14.38;;;10.27;;
36351;SDS011;22382;44.768;17.206;2023-05-10T05:10:32;13.90;;;9.43;;
36351;SDS011;22382;44.768;17.206;2023-05-10T05:12:59;14.60;;;8.82;;
36351;SDS011;22382;44.768;17.206;2023-05-10T05:15:26;16.20;;;10.98;;
36351;SDS011;22382;44.768;17.206;2023-05-10T05:17:54;17.80;;;10.27;;
36351;SDS011;22382;44.768;17.206;2023-05-10T05:20:21;13.65;;;9.90;;
36351;SDS011;22382;44.768;17.206;2023-05-10T05:22:49;13.07;;;9.95;;
36351;SDS011;22382;44.768;17.206;2023-05-10T05:25:16;16.17;;;9.20;;
36351;SDS011;22382;44.768;17.206;2023-05-10T05:27:43;14.10;;;10.05;;
36351;SDS011;22382;44.768;17.206;2023-05-10T05:30:10;19.08;;;10.60;;
36351;SDS011;22382;44.768;17.206;2023-05-10T05:32:38;11.77;;;9.13;;
36351;SDS011;22382;44.768;17.206;2023-05-10T05:35:06;14.95;;;9.23;;
36351;SDS011;22382;44.768;17.206;2023-05-10T05:37:34;15.90;;;10.35;;
36351;SDS011;22382;44.768;17.206;2023-05-10T05:40:01;11.80;;;9.65;;
36351;SDS011;22382;44.768;17.206;2023-05-10T05:42:30;13.80;;;9.48;;
36351;SDS011;22382;44.768;17.206;2023-05-10T05:44:57;14.77;;;9.27;;
36351;SDS011;22382;44.768;17.206;2023-05-10T05:47:25;13.48;;;9.60;;
36351;SDS011;22382;44.768;17.206;2023-05-10T05:49:52;12.27;;;8.93;;
36351;SDS011;22382;44.768;17.206;2023-05-10T05:52:19;14.48;;;8.30;;
36351;SDS011;22382;44.768;17.206;2023-05-10T05:54:47;13.45;;;9.57;;
36351;SDS011;22382;44.768;17.206;2023-05-10T05:57:14;17.40;;;9.95;;
36351;SDS011;22382;44.768;17.206;2023-05-10T05:59:42;14.27;;;8.73;;
36351;SDS011;22382;44.768;17.206;2023-05-10T06:02:10;13.27;;;9.55;;
36351;SDS011;22382;44.768;17.206;2023-05-10T06:04:37;20.42;;;10.70;;
36351;SDS011;22382;44.768;17.206;2023-05-10T06:07:08;18.38;;;11.43;;
36351;SDS011;22382;44.768;17.206;2023-05-10T06:09:35;14.65;;;10.13;;
36351;SDS011;22382;44.768;17.206;2023-05-10T06:12:02;15.30;;;10.45;;
36351;SDS011;22382;44.768;17.206;2023-05-10T06:14:29;17.88;;;10.48;;
36351;SDS011;22382;44.768;17.206;2023-05-10T06:16:56;13.27;;;9.48;;
36351;SDS011;22382;44.768;17.206;2023-05-10T06:19:26;13.02;;;9.65;;
36351;SDS011;22382;44.768;17.206;2023-05-10T06:21:53;14.55;;;8.73;;
36351;SDS011;22382;44.768;17.206;2023-05-10T06:24:20;13.75;;;9.57;;
36351;SDS011;22382;44.768;17.206;2023-05-10T06:26:48;16.65;;;10.18;;
36351;SDS011;22382;44.768;17.206;2023-05-10T06:29:16;12.68;;;9.65;;
36351;SDS011;22382;44.768;17.206;2023-05-10T06:31:43;14.65;;;10.93;;
36351;SDS011;22382;44.768;17.206;2023-05-10T06:34:11;12.73;;;9.48;;
36351;SDS011;22382;44.768;17.206;2023-05-10T06:36:38;18.27;;;11.70;;
36351;SDS011;22382;44.768;17.206;2023-05-10T06:39:05;17.42;;;11.38;;
36351;SDS011;22382;44.768;17.206;2023-05-10T06:41:33;19.70;;;12.38;;
36351;SDS011;22382;44.768;17.206;2023-05-10T06:44:00;17.58;;;12.80;;
36351;SDS011;22382;44.768;17.206;2023-05-10T06:46:27;15.13;;;11.25;;
36351;SDS011;22382;44.768;17.206;2023-05-10T06:48:54;18.75;;;11.48;;
36351;SDS011;22382;44.768;17.206;2023-05-10T06:51:22;14.43;;;12.10;;
36351;SDS011;22382;44.768;17.206;2023-05-10T06:53:49;16.85;;;11.43;;
36351;SDS011;22382;44.768;17.206;2023-05-10T06:56:16;18.35;;;11.93;;
36351;SDS011;22382;44.768;17.206;2023-05-10T06:58:44;13.57;;;10.10;;
36351;SDS011;22382;44.768;17.206;2023-05-10T07:01:11;17.20;;;10.43;;
36351;SDS011;22382;44.768;17.206;2023-05-10T07:03:38;19.58;;;12.10;;
36351;SDS011;22382;44.768;17.206;2023-05-10T07:06:05;11.57;;;9.00;;
36351;SDS011;22382;44.768;17.206;2023-05-10T07:08:43;15.43;;;10.57;;
36351;SDS011;22382;44.768;17.206;2023-05-10T07:11:11;13.57;;;10.05;;
36351;SDS011;22382;44.768;17.206;2023-05-10T07:13:38;15.07;;;11.00;;
36351;SDS011;22382;44.768;17.206;2023-05-10T07:16:07;11.55;;;9.65;;
36351;SDS011;22382;44.768;17.206;2023-05-10T07:18:35;17.33;;;11.63;;
36351;SDS011;22382;44.768;17.206;2023-05-10T07:21:02;13.13;;;10.57;;
36351;SDS011;22382;44.768;17.206;2023-05-10T07:23:29;16.75;;;11.27;;
36351;SDS011;22382;44.768;17.206;2023-05-10T07:25:57;13.65;;;10.23;;
36351;SDS011;22382;44.768;17.206;2023-05-10T07:28:24;16.88;;;11.85;;
36351;SDS011;22382;44.768;17.206;2023-05-10T07:30:51;19.55;;;11.13;;
36351;SDS011;22382;44.768;17.206;2023-05-10T07:33:19;12.95;;;10.82;;
36351;SDS011;22382;44.768;17.206;2023-05-10T07:35:46;16.98;;;11.13;;
36351;SDS011;22382;44.768;17.206;2023-05-10T07:38:13;12.20;;;9.10;;
36351;SDS011;22382;44.768;17.206;2023-05-10T07:40:40;17.30;;;11.63;;
36351;SDS011;22382;44.768;17.206;2023-05-10T07:43:07;15.52;;;11.35;;
36351;SDS011;22382;44.768;17.206;2023-05-10T07:45:34;21.98;;;11.95;;
36351;SDS011;22382;44.768;17.206;2023-05-10T07:48:02;14.38;;;11.40;;
36351;SDS011;22382;44.768;17.206;2023-05-10T07:50:29;16.05;;;11.52;;
36351;SDS011;22382;44.768;17.206;2023-05-10T07:52:57;18.75;;;11.93;;
36351;SDS011;22382;44.768;17.206;2023-05-10T07:55:24;15.25;;;12.23;;
36351;SDS011;22382;44.768;17.206;2023-05-10T07:57:51;14.73;;;10.85;;
36351;SDS011;22382;44.768;17.206;2023-05-10T08:00:19;17.85;;;11.90;;
36351;SDS011;22382;44.768;17.206;2023-05-10T08:02:47;16.42;;;12.73;;
36351;SDS011;22382;44.768;17.206;2023-05-10T08:05:14;18.90;;;12.57;;
36351;SDS011;22382;44.768;17.206;2023-05-10T08:07:42;17.25;;;12.32;;
36351;SDS011;22382;44.768;17.206;2023-05-10T08:10:09;22.17;;;13.77;;
36351;SDS011;22382;44.768;17.206;2023-05-10T08:12:40;25.08;;;12.45;;
36351;SDS011;22382;44.768;17.206;2023-05-10T08:15:07;19.23;;;11.82;;
36351;SDS011;22382;44.768;17.206;2023-05-10T08:17:35;27.58;;;13.80;;
36351;SDS011;22382;44.768;17.206;2023-05-10T08:20:02;16.92;;;13.70;;
36351;SDS011;22382;44.768;17.206;2023-05-10T08:22:30;17.25;;;12.27;;
36351;SDS011;22382;44.768;17.206;2023-05-10T08:24:57;18.45;;;13.45;;
36351;SDS011;22382;44.768;17.206;2023-05-10T08:27:24;18.48;;;12.75;;
36351;SDS011;22382;44.768;17.206;2023-05-10T08:29:52;16.02;;;13.38;;
36351;SDS011;22382;44.768;17.206;2023-05-10T08:32:19;14.20;;;12.45;;
36351;SDS011;22382;44.768;17.206;2023-05-10T08:34:46;17.77;;;14.38;;
36351;SDS011;22382;44.768;17.206;2023-05-10T08:37:13;16.27;;;12.98;;
36351;SDS011;22382;44.768;17.206;2023-05-10T08:39:41;16.30;;;13.20;;
36351;SDS011;22382;44.768;17.206;2023-05-10T08:42:08;14.48;;;11.48;;
36351;SDS011;22382;44.768;17.206;2023-05-10T08:44:36;13.30;;;11.80;;
36351;SDS011;22382;44.768;17.206;2023-05-10T08:47:06;16.73;;;13.75;;
36351;SDS011;22382;44.768;17.206;2023-05-10T08:49:35;16.73;;;12.98;;
36351;SDS011;22382;44.768;17.206;2023-05-10T08:52:04;17.27;;;13.57;;
36351;SDS011;22382;44.768;17.206;2023-05-10T08:54:33;18.33;;;12.85;;
36351;SDS011;22382;44.768;17.206;2023-05-10T08:57:01;18.35;;;13.40;;
36351;SDS011;22382;44.768;17.206;2023-05-10T08:59:28;14.80;;;13.20;;
36351;SDS011;22382;44.768;17.206;2023-05-10T09:01:57;20.15;;;14.20;;
36351;SDS011;22382;44.768;17.206;2023-05-10T09:04:25;16.83;;;13.10;;
36351;SDS011;22382;44.768;17.206;2023-05-10T09:06:53;26.25;;;15.18;;
36351;SDS011;22382;44.768;17.206;2023-05-10T09:09:20;17.63;;;13.52;;
36351;SDS011;22382;44.768;17.206;2023-05-10T09:11:48;13.77;;;11.48;;
36351;SDS011;22382;44.768;17.206;2023-05-10T09:14:15;13.25;;;11.55;;
36351;SDS011;22382;44.768;17.206;2023-05-10T09:16:44;16.83;;;12.77;;
36351;SDS011;22382;44.768;17.206;2023-05-10T09:19:11;19.25;;;13.30;;
36351;SDS011;22382;44.768;17.206;2023-05-10T09:21:38;13.25;;;11.77;;
36351;SDS011;22382;44.768;17.206;2023-05-10T09:24:06;16.13;;;12.20;;
36351;SDS011;22382;44.768;17.206;2023-05-10T09:26:35;15.57;;;12.57;;
36351;SDS011;22382;44.768;17.206;2023-05-10T09:29:11;16.23;;;13.30;;
36351;SDS011;22382;44.768;17.206;2023-05-10T09:31:43;13.85;;;12.35;;
36351;SDS011;22382;44.768;17.206;2023-05-10T09:34:11;13.50;;;12.10;;
36351;SDS011;22382;44.768;17.206;2023-05-10T09:36:53;17.05;;;12.38;;
36351;SDS011;22382;44.768;17.206;2023-05-10T09:39:29;15.32;;;13.40;;
36351;SDS011;22382;44.768;17.206;2023-05-10T09:41:59;15.18;;;12.70;;
36351;SDS011;22382;44.768;17.206;2023-05-10T09:44:30;15.43;;;13.03;;
36351;SDS011;22382;44.768;17.206;2023-05-10T09:46:59;17.27;;;14.05;;
36351;SDS011;22382;44.768;17.206;2023-05-10T09:49:30;19.13;;;13.40;;
36351;SDS011;22382;44.768;17.206;2023-05-10T09:52:01;16.95;;;13.77;;
36351;SDS011;22382;44.768;17.206;2023-05-10T09:54:30;17.57;;;14.50;;
36351;SDS011;22382;44.768;17.206;2023-05-10T09:56:58;17.02;;;14.02;;
36351;SDS011;22382;44.768;17.206;2023-05-10T09:59:26;18.65;;;13.40;;
36351;SDS011;22382;44.768;17.206;2023-05-10T10:01:58;17.25;;;13.88;;
36351;SDS011;22382;44.768;17.206;2023-05-10T10:04:27;20.95;;;13.05;;
36351;SDS011;22382;44.768;17.206;2023-05-10T10:06:58;15.75;;;13.20;;
36351;SDS011;22382;44.768;17.206;2023-05-10T10:09:30;13.88;;;12.38;;
36351;SDS011;22382;44.768;17.206;2023-05-10T10:11:59;14.02;;;12.52;;
36351;SDS011;22382;44.768;17.206;2023-05-10T10:14:27;15.95;;;13.07;;
36351;SDS011;22382;44.768;17.206;2023-05-10T10:16:55;14.90;;;12.65;;
36351;SDS011;22382;44.768;17.206;2023-05-10T10:19:34;14.77;;;12.32;;
36351;SDS011;22382;44.768;17.206;2023-05-10T10:22:02;16.90;;;13.23;;
36351;SDS011;22382;44.768;17.206;2023-05-10T10:24:30;15.52;;;12.75;;
36351;SDS011;22382;44.768;17.206;2023-05-10T10:27:46;16.67;;;12.57;;
36351;SDS011;22382;44.768;17.206;2023-05-10T10:30:49;13.90;;;11.57;;
36351;SDS011;22382;44.768;17.206;2023-05-10T10:36:03;16.67;;;11.57;;
36351;SDS011;22382;44.768;17.206;2023-05-10T10:38:54;13.55;;;11.65;;
36351;SDS011;22382;44.768;17.206;2023-05-10T10:47:11;17.90;;;12.18;;
36351;SDS011;22382;44.768;17.206;2023-05-10T10:49:52;13.40;;;11.93;;
36351;SDS011;22382;44.768;17.206;2023-05-10T10:52:33;20.48;;;12.43;;
36351;SDS011;22382;44.768;17.206;2023-05-10T11:00:27;15.63;;;12.43;;
36351;SDS011;22382;44.768;17.206;2023-05-10T11:03:13;15.65;;;12.00;;
36351;SDS011;22382;44.768;17.206;2023-05-10T11:05:48;14.90;;;11.60;;
36351;SDS011;22382;44.768;17.206;2023-05-10T11:08:18;16.27;;;11.82;;
36351;SDS011;22382;44.768;17.206;2023-05-10T11:13:31;18.38;;;11.77;;
36351;SDS011;22382;44.768;17.206;2023-05-10T11:16:20;15.60;;;12.93;;
36351;SDS011;22382;44.768;17.206;2023-05-10T11:19:00;14.25;;;10.60;;
36351;SDS011;22382;44.768;17.206;2023-05-10T11:21:34;15.93;;;11.82;;
36351;SDS011;22382;44.768;17.206;2023-05-10T11:24:15;20.27;;;11.93;;
36351;SDS011;22382;44.768;17.206;2023-05-10T11:26:44;15.45;;;12.52;;
36351;SDS011;22382;44.768;17.206;2023-05-10T11:29:12;12.68;;;10.57;;
36351;SDS011;22382;44.768;17.206;2023-05-10T11:31:43;14.85;;;11.80;;
36351;SDS011;22382;44.768;17.206;2023-05-10T11:34:22;16.77;;;14.10;;
36351;SDS011;22382;44.768;17.206;2023-05-10T11:36:51;17.70;;;13.45;;
36351;SDS011;22382;44.768;17.206;2023-05-10T11:39:26;14.97;;;11.43;;
36351;SDS011;22382;44.768;17.206;2023-05-10T11:41:54;13.45;;;10.60;;
36351;SDS011;22382;44.768;17.206;2023-05-10T11:44:23;13.68;;;11.13;;
36351;SDS011;22382;44.768;17.206;2023-05-10T11:46:57;19.65;;;12.45;;
36351;SDS011;22382;44.768;17.206;2023-05-10T11:49:28;18.10;;;12.55;;
36351;SDS011;22382;44.768;17.206;2023-05-10T11:52:05;16.35;;;12.85;;
36351;SDS011;22382;44.768;17.206;2023-05-10T11:54:33;17.63;;;13.45;;
36351;SDS011;22382;44.768;17.206;2023-05-10T11:57:01;13.73;;;10.93;;
36351;SDS011;22382;44.768;17.206;2023-05-10T11:59:29;13.77;;;10.27;;
36351;SDS011;22382;44.768;17.206;2023-05-10T12:01:56;16.15;;;13.02;;
36351;SDS011;22382;44.768;17.206;2023-05-10T12:04:24;15.13;;;12.07;;
36351;SDS011;22382;44.768;17.206;2023-05-10T12:06:52;14.73;;;12.38;;
36351;SDS011;22382;44.768;17.206;2023-05-10T12:09:19;14.55;;;11.57;;
36351;SDS011;22382;44.768;17.206;2023-05-10T12:12:06;17.38;;;13.63;;
36351;SDS011;22382;44.768;17.206;2023-05-10T12:14:34;17.80;;;12.48;;
36351;SDS011;22382;44.768;17.206;2023-05-10T12:17:02;18.00;;;14.48;;
36351;SDS011;22382;44.768;17.206;2023-05-10T12:19:36;18.45;;;15.50;;
36351;SDS011;22382;44.768;17.206;2023-05-10T12:22:05;21.52;;;16.52;;
36351;SDS011;22382;44.768;17.206;2023-05-10T12:24:38;16.15;;;13.63;;
36351;SDS011;22382;44.768;17.206;2023-05-10T12:27:09;21.73;;;15.85;;
36351;SDS011;22382;44.768;17.206;2023-05-10T12:29:36;15.18;;;13.55;;
36351;SDS011;22382;44.768;17.206;2023-05-10T12:32:10;18.30;;;15.05;;
36351;SDS011;22382;44.768;17.206;2023-05-10T12:34:37;17.52;;;14.75;;
36351;SDS011;22382;44.768;17.206;2023-05-10T12:37:05;19.83;;;17.27;;
36351;SDS011;22382;44.768;17.206;2023-05-10T12:39:42;16.48;;;14.18;;
36351;SDS011;22382;44.768;17.206;2023-05-10T12:42:12;20.83;;;16.15;;
36351;SDS011;22382;44.768;17.206;2023-05-10T12:44:39;20.60;;;15.88;;
36351;SDS011;22382;44.768;17.206;2023-05-10T12:47:06;19.33;;;14.98;;
36351;SDS011;22382;44.768;17.206;2023-05-10T12:49:34;18.17;;;15.65;;
36351;SDS011;22382;44.768;17.206;2023-05-10T12:52:01;25.20;;;18.00;;
36351;SDS011;22382;44.768;17.206;2023-05-10T12:54:28;18.48;;;16.52;;
36351;SDS011;22382;44.768;17.206;2023-05-10T12:56:56;20.25;;;15.43;;
36351;SDS011;22382;44.768;17.206;2023-05-10T12:59:23;18.40;;;14.57;;
36351;SDS011;22382;44.768;17.206;2023-05-10T13:01:51;25.13;;;16.58;;
36351;SDS011;22382;44.768;17.206;2023-05-10T13:04:18;18.40;;;14.95;;
36351;SDS011;22382;44.768;17.206;2023-05-10T13:06:45;24.10;;;19.02;;
36351;SDS011;22382;44.768;17.206;2023-05-10T13:09:12;22.38;;;17.25;;
36351;SDS011;22382;44.768;17.206;2023-05-10T13:11:40;18.50;;;15.77;;
36351;SDS011;22382;44.768;17.206;2023-05-10T13:14:07;16.35;;;14.55;;
36351;SDS011;22382;44.768;17.206;2023-05-10T13:16:34;16.05;;;14.35;;
36351;SDS011;22382;44.768;17.206;2023-05-10T13:19:02;17.48;;;14.00;;
36351;SDS011;22382;44.768;17.206;2023-05-10T13:21:29;19.35;;;15.63;;
36351;SDS011;22382;44.768;17.206;2023-05-10T13:23:56;18.25;;;16.25;;
36351;SDS011;22382;44.768;17.206;2023-05-10T13:26:24;18.02;;;14.40;;
36351;SDS011;22382;44.768;17.206;2023-05-10T13:28:51;18.83;;;16.20;;
36351;SDS011;22382;44.768;17.206;2023-05-10T13:31:19;17.75;;;15.82;;
36351;SDS011;22382;44.768;17.206;2023-05-10T13:33:47;17.25;;;15.45;;
36351;SDS011;22382;44.768;17.206;2023-05-10T13:36:14;22.83;;;16.80;;
36351;SDS011;22382;44.768;17.206;2023-05-10T13:38:41;17.48;;;15.63;;
36351;SDS011;22382;44.768;17.206;2023-05-10T13:41:08;23.00;;;18.70;;
36351;SDS011;22382;44.768;17.206;2023-05-10T13:43:36;23.13;;;19.23;;
36351;SDS011;22382;44.768;17.206;2023-05-10T13:46:03;19.27;;;15.85;;
36351;SDS011;22382;44.768;17.206;2023-05-10T13:48:31;18.13;;;16.20;;
36351;SDS011;22382;44.768;17.206;2023-05-10T13:50:58;18.10;;;14.77;;
36351;SDS011;22382;44.768;17.206;2023-05-10T13:53:27;18.75;;;16.30;;
36351;SDS011;22382;44.768;17.206;2023-05-10T13:55:54;18.25;;;15.23;;
36351;SDS011;22382;44.768;17.206;2023-05-10T13:58:21;14.93;;;13.32;;
36351;SDS011;22382;44.768;17.206;2023-05-10T14:00:48;22.20;;;15.68;;
36351;SDS011;22382;44.768;17.206;2023-05-10T14:03:16;18.10;;;15.45;;
36351;SDS011;22382;44.768;17.206;2023-05-10T14:05:43;15.50;;;13.48;;
36351;SDS011;22382;44.768;17.206;2023-05-10T14:08:11;16.52;;;13.98;;
36351;SDS011;22382;44.768;17.206;2023-05-10T14:10:39;15.73;;;13.27;;
36351;SDS011;22382;44.768;17.206;2023-05-10T14:13:06;21.13;;;15.70;;
36351;SDS011;22382;44.768;17.206;2023-05-10T14:15:34;22.92;;;17.80;;
36351;SDS011;22382;44.768;17.206;2023-05-10T14:18:01;19.48;;;15.88;;
36351;SDS011;22382;44.768;17.206;2023-05-10T14:20:29;22.00;;;17.88;;
36351;SDS011;22382;44.768;17.206;2023-05-10T14:22:56;22.65;;;18.67;;
36351;SDS011;22382;44.768;17.206;2023-05-10T14:25:23;22.92;;;18.08;;
36351;SDS011;22382;44.768;17.206;2023-05-10T14:27:51;20.83;;;16.00;;
36351;SDS011;22382;44.768;17.206;2023-05-10T14:32:51;20.42;;;17.17;;
36351;SDS011;22382;44.768;17.206;2023-05-10T14:35:20;22.58;;;17.00;;
36351;SDS011;22382;44.768;17.206;2023-05-10T14:37:47;19.85;;;17.48;;
36351;SDS011;22382;44.768;17.206;2023-05-10T14:40:15;30.40;;;18.63;;
36351;SDS011;22382;44.768;17.206;2023-05-10T14:42:44;28.65;;;19.08;;
36351;SDS011;22382;44.768;17.206;2023-05-10T14:45:11;17.92;;;16.13;;
36351;SDS011;22382;44.768;17.206;2023-05-10T14:47:39;22.02;;;19.65;;
36351;SDS011;22382;44.768;17.206;2023-05-10T14:50:06;20.42;;;17.35;;
36351;SDS011;22382;44.768;17.206;2023-05-10T14:52:34;18.42;;;14.18;;
36351;SDS011;22382;44.768;17.206;2023-05-10T14:55:01;20.75;;;15.00;;
36351;SDS011;22382;44.768;17.206;2023-05-10T14:57:29;22.27;;;17.33;;
36351;SDS011;22382;44.768;17.206;2023-05-10T14:59:56;15.50;;;12.85;;
36351;SDS011;22382;44.768;17.206;2023-05-10T15:02:24;15.77;;;12.95;;
36351;SDS011;22382;44.768;17.206;2023-05-10T15:04:52;34.22;;;25.27;;
36351;SDS011;22382;44.768;17.206;2023-05-10T15:07:19;24.75;;;18.70;;
36351;SDS011;22382;44.768;17.206;2023-05-10T15:09:47;19.23;;;15.15;;